createdAt,value
2022-09-16T04:01:06.192Z,98763.57
2022-09-16T04:03:38.238Z,98765.70
2022-09-16T04:06:07.528Z,98767.91
2022-09-16T04:08:37.885Z,98773.11
2022-09-16T04:11:07.886Z,98774.65
2022-09-16T04:13:36.774Z,98777.79
2022-09-16T04:16:06.962Z,98777.20
2022-09-16T04:18:36.767Z,98778.62
2022-09-16T04:21:05.658Z,98779.00
2022-09-16T04:23:34.677Z,98784.13
2022-09-16T04:26:05.020Z,98779.33
2022-09-16T04:28:34.970Z,98777.43
2022-09-16T04:31:06.051Z,98777.27
2022-09-16T04:33:36.094Z,98780.67
2022-09-16T04:36:11.173Z,98779.35
2022-09-16T04:38:42.805Z,98784.08
2022-09-16T04:41:20.791Z,98783.79
2022-09-16T04:43:59.094Z,98784.84
2022-09-16T04:46:30.714Z,98787.94
2022-09-16T04:49:00.927Z,98788.73
2022-09-16T04:51:30.437Z,98785.59
2022-09-16T04:54:01.933Z,98788.24
2022-09-16T04:56:32.859Z,98791.73
2022-09-16T04:59:05.072Z,98793.71
2022-09-16T05:01:38.043Z,98792.75
2022-09-16T05:04:08.831Z,98791.41
2022-09-16T05:06:41.079Z,98794.84
2022-09-16T05:09:13.540Z,98796.39
2022-09-16T05:11:42.635Z,98796.64
2022-09-16T05:14:16.212Z,98792.34
2022-09-16T05:16:45.854Z,98791.24
2022-09-16T05:19:15.611Z,98791.45
2022-09-16T05:21:44.491Z,98796.77
2022-09-16T05:24:15.394Z,98791.52
2022-09-16T05:26:44.918Z,98789.30
2022-09-16T05:29:17.175Z,98788.22
2022-09-16T05:31:50.104Z,98784.15
2022-09-16T05:34:28.785Z,98788.97
2022-09-16T05:36:57.872Z,98792.49
2022-09-16T05:39:26.913Z,98789.64
2022-09-16T05:42:00.354Z,98787.80
2022-09-16T05:44:29.833Z,98784.14
2022-09-16T05:46:58.681Z,98779.63
2022-09-16T05:49:27.497Z,98775.71
2022-09-16T05:51:57.203Z,98781.52
2022-09-16T05:54:25.980Z,98787.11
2022-09-16T05:56:55.501Z,98789.52
2022-09-16T05:59:24.875Z,98782.46
2022-09-16T06:01:54.381Z,98777.13
2022-09-16T06:04:23.656Z,98778.39
2022-09-16T06:06:52.741Z,98774.52
2022-09-16T06:09:24.699Z,98768.59
2022-09-16T06:12:01.701Z,98768.20
2022-09-16T06:14:31.886Z,98769.27
2022-09-16T06:17:02.468Z,98773.02
2022-09-16T06:19:31.791Z,98774.73
2022-09-16T06:22:01.049Z,98773.63
2022-09-16T06:24:32.962Z,98775.80
2022-09-16T06:27:02.774Z,98778.82
2022-09-16T06:29:32.173Z,98778.90
2022-09-16T06:32:01.114Z,98781.81
2022-09-16T06:34:31.479Z,98783.80
2022-09-16T06:37:00.629Z,98784.41
2022-09-16T06:39:29.463Z,98783.59
2022-09-16T06:42:00.950Z,98789.98
2022-09-16T06:44:32.674Z,98787.70
2022-09-16T06:47:01.986Z,98791.76
2022-09-16T06:49:31.687Z,98789.55
2022-09-16T06:52:00.279Z,98788.95
2022-09-16T06:54:28.703Z,98789.44
2022-09-16T06:56:58.314Z,98787.36
2022-09-16T06:59:26.813Z,98788.70
2022-09-16T07:01:56.035Z,98785.22
2022-09-16T07:04:24.815Z,98785.89
2022-09-16T07:07:10.587Z,98791.25
2022-09-16T07:09:41.892Z,98791.09
2022-09-16T07:12:10.732Z,98794.81
2022-09-16T07:14:39.832Z,98795.17
2022-09-16T07:17:09.162Z,98792.73
2022-09-16T07:19:38.123Z,98790.95
2022-09-16T07:22:07.328Z,98794.33
2022-09-16T07:24:36.662Z,98796.80
2022-09-16T07:27:05.910Z,98794.60
2022-09-16T07:29:34.516Z,98791.35
2022-09-16T07:32:04.083Z,98793.39
2022-09-16T07:34:32.687Z,98799.46
2022-09-16T07:37:01.445Z,98797.02
2022-09-16T07:39:30.079Z,98797.56
2022-09-16T07:42:03.863Z,98798.35
2022-09-16T07:44:35.431Z,98796.46
2022-09-16T07:47:05.278Z,98797.52
2022-09-16T07:49:34.117Z,98790.13
2022-09-16T07:52:03.354Z,98786.54
2022-09-16T07:54:32.851Z,98784.88
2022-09-16T07:57:02.264Z,98788.77
2022-09-16T07:59:31.522Z,98784.71
2022-09-16T08:02:01.251Z,98782.63
2022-09-16T08:04:30.562Z,98789.83
2022-09-16T08:06:59.169Z,98786.06
2022-09-16T08:09:45.142Z,98786.66
2022-09-16T08:12:18.475Z,98786.39
2022-09-16T08:14:47.706Z,98786.17
2022-09-16T08:17:17.248Z,98787.30
2022-09-16T08:19:46.411Z,98788.20
2022-09-16T08:22:15.748Z,98790.66
2022-09-16T08:24:45.429Z,98788.11
2022-09-16T08:27:14.804Z,98786.16
2022-09-16T08:29:46.133Z,98789.33
2022-09-16T08:32:15.635Z,98787.27
2022-09-16T08:34:45.407Z,98790.52
2022-09-16T08:37:14.627Z,98785.15
2022-09-16T08:39:44.005Z,98790.11
2022-09-16T08:42:48.356Z,98785.75
2022-09-16T08:45:31.196Z,98789.93
2022-09-16T08:48:08.674Z,98791.78
2022-09-16T08:50:45.705Z,98787.19
2022-09-16T08:53:38.742Z,98779.76
2022-09-16T08:56:21.122Z,98783.00
2022-09-16T08:58:57.199Z,98778.73
2022-09-16T09:01:32.225Z,98778.06
2022-09-16T09:04:02.959Z,98779.45
2022-09-16T09:07:07.048Z,98781.11
2022-09-16T09:09:42.874Z,98778.98
2022-09-16T09:12:41.610Z,98778.99
2022-09-16T09:15:32.173Z,98782.73
2022-09-16T09:18:34.066Z,98776.80
2022-09-16T09:21:03.507Z,98776.13
2022-09-16T09:23:48.206Z,98768.23
2022-09-16T09:26:22.917Z,98764.05
2022-09-16T09:29:05.676Z,98767.37
2022-09-16T09:31:57.450Z,98772.00
2022-09-16T09:34:42.033Z,98769.46
2022-09-16T09:37:23.122Z,98769.80
2022-09-16T09:40:01.673Z,98770.27
2022-09-16T09:42:51.062Z,98765.31
2022-09-16T09:45:37.517Z,98763.25
2022-09-16T09:48:21.166Z,98767.60
2022-09-16T09:50:53.131Z,98770.88
2022-09-16T09:53:34.740Z,98768.56
2022-09-16T09:56:35.819Z,98774.91
2022-09-16T09:59:20.854Z,98779.50
2022-09-16T10:01:58.891Z,98780.23
2022-09-16T10:04:37.249Z,98786.58
2022-09-16T10:07:07.884Z,98791.20
2022-09-16T10:09:46.274Z,98789.79
2022-09-16T10:12:15.673Z,98788.13
2022-09-16T10:14:47.190Z,98788.31
2022-09-16T10:17:18.517Z,98784.04
2022-09-16T10:20:11.326Z,98785.11
2022-09-16T10:22:41.027Z,98781.60
2022-09-16T10:25:25.470Z,98779.41
2022-09-16T10:27:58.848Z,98779.84
2022-09-16T10:30:43.139Z,98790.15
2022-09-16T10:33:25.658Z,98782.05
2022-09-16T10:36:01.307Z,98789.13
2022-09-16T10:38:54.121Z,98788.80
2022-09-16T10:41:47.048Z,98791.68
2022-09-16T10:44:38.692Z,98787.79
2022-09-16T10:47:21.212Z,98792.77
2022-09-16T10:49:54.771Z,98787.58
2022-09-16T10:52:26.892Z,98784.95
2022-09-16T10:54:57.167Z,98784.27
2022-09-16T10:57:26.368Z,98780.95
2022-09-16T11:00:10.488Z,98781.80
2022-09-16T11:02:59.191Z,98781.30
2022-09-16T11:05:46.112Z,98787.48
2022-09-16T11:08:59.467Z,98789.05
2022-09-16T11:11:43.776Z,98790.23
2022-09-16T11:14:18.457Z,98793.38
2022-09-16T11:17:37.215Z,98791.30
2022-09-16T11:20:28.541Z,98794.81
2022-09-16T11:23:08.926Z,98795.67
2022-09-16T11:25:43.819Z,98790.84
2022-09-16T11:28:38.366Z,98797.95
2022-09-16T11:31:10.136Z,98793.93
2022-09-16T11:34:03.974Z,98785.46
2022-09-16T11:36:47.348Z,98787.98
2022-09-16T11:39:45.291Z,98785.02
2022-09-16T11:42:37.712Z,98775.02
2022-09-16T11:45:38.611Z,98776.70
2022-09-16T11:48:20.774Z,98779.83
2022-09-16T11:50:56.184Z,98771.95
2022-09-16T11:53:42.302Z,98774.98
2022-09-16T11:56:19.859Z,98775.40
2022-09-16T11:58:58.129Z,98777.31
2022-09-16T12:01:35.885Z,98771.64
2022-09-16T12:04:17.200Z,98780.30
2022-09-16T12:06:49.373Z,98773.88
2022-09-16T12:09:25.638Z,98777.02
2022-09-16T12:12:05.123Z,98776.32
2022-09-16T12:14:42.951Z,98773.80
2022-09-16T12:17:29.475Z,98776.34
2022-09-16T12:20:05.981Z,98771.54
2022-09-16T12:22:35.285Z,98774.56
2022-09-16T12:25:09.858Z,98772.58
2022-09-16T12:27:49.750Z,98773.79
2022-09-16T12:30:31.183Z,98769.89
2022-09-16T12:33:22.426Z,98769.45
2022-09-16T12:36:00.683Z,98766.19
2022-09-16T12:38:31.699Z,98761.72
2022-09-16T12:41:33.909Z,98755.79
2022-09-16T12:44:35.713Z,98761.78
2022-09-16T12:47:23.633Z,98759.75
2022-09-16T12:50:29.961Z,98759.13
2022-09-16T12:53:47.339Z,98751.24
2022-09-16T12:56:51.737Z,98750.74
2022-09-16T12:59:31.286Z,98749.45
2022-09-16T13:02:18.789Z,98738.44
2022-09-16T13:04:57.937Z,98741.08
2022-09-16T13:07:31.021Z,98737.98
2022-09-16T13:10:55.042Z,98734.72
2022-09-16T13:13:50.681Z,98731.52
2022-09-16T13:16:57.806Z,98737.01
2022-09-16T13:19:38.841Z,98739.39
2022-09-16T13:22:28.885Z,98737.83
2022-09-16T13:25:29.965Z,98729.42
2022-09-16T13:28:05.427Z,98735.38
2022-09-16T13:30:39.494Z,98732.23
2022-09-16T13:33:10.808Z,98736.15
2022-09-16T13:35:42.653Z,98739.23
2022-09-16T13:38:17.804Z,98735.02
2022-09-16T13:41:02.436Z,98734.97
2022-09-16T13:43:34.513Z,98732.19
2022-09-16T13:46:10.446Z,98730.36
2022-09-16T13:49:06.064Z,98725.32
2022-09-16T13:51:46.048Z,98733.56
2022-09-16T13:54:27.442Z,98728.77
2022-09-16T13:57:12.101Z,98730.84
2022-09-16T13:59:56.380Z,98732.77
2022-09-16T14:02:51.573Z,98731.92
2022-09-16T14:05:45.383Z,98730.71
2022-09-16T14:08:37.918Z,98731.90
2022-09-16T14:11:22.923Z,98729.81
2022-09-16T14:14:05.207Z,98726.50
2022-09-16T14:16:41.069Z,98724.29
2022-09-16T14:19:22.545Z,98724.09
2022-09-16T14:22:18.811Z,98720.71
2022-09-16T14:24:52.940Z,98723.63
2022-09-16T14:27:43.186Z,98724.88
2022-09-16T14:30:17.955Z,98726.59
2022-09-16T14:32:49.153Z,98728.25
2022-09-16T14:35:26.876Z,98723.11
2022-09-16T14:38:01.054Z,98724.69
2022-09-16T14:40:30.476Z,98722.56
2022-09-16T14:43:08.672Z,98723.03
2022-09-16T14:45:38.561Z,98721.00
2022-09-16T14:48:10.937Z,98723.70
2022-09-16T14:50:45.031Z,98719.66
2022-09-16T14:53:35.392Z,98719.14
2022-09-16T14:56:06.709Z,98718.57
2022-09-16T14:58:37.474Z,98717.27
2022-09-16T15:01:17.586Z,98719.59
2022-09-16T15:04:01.470Z,98718.75
2022-09-16T15:06:35.743Z,98720.55
2022-09-16T15:09:15.417Z,98722.04
2022-09-16T15:11:54.042Z,98718.81
2022-09-16T15:14:26.544Z,98715.23
2022-09-16T15:17:00.854Z,98712.73
2022-09-16T15:19:37.063Z,98709.95
2022-09-16T15:22:14.142Z,98709.30
2022-09-16T15:24:48.716Z,98711.28
2022-09-16T15:27:29.263Z,98708.74
2022-09-16T15:30:01.418Z,98705.52
2022-09-16T15:32:32.165Z,98710.63
2022-09-16T15:35:12.805Z,98703.61
2022-09-16T15:37:41.687Z,98705.12
2022-09-16T15:40:33.581Z,98703.13
2022-09-16T15:43:22.794Z,98701.99
2022-09-16T15:46:04.196Z,98705.95
2022-09-16T15:48:37.068Z,98700.52
2022-09-16T15:51:28.399Z,98705.43
2022-09-16T15:54:31.945Z,98706.79
2022-09-16T15:57:06.878Z,98706.98
2022-09-16T15:59:48.903Z,98710.39
2022-09-16T16:02:33.062Z,98706.75
2022-09-16T16:05:18.251Z,98705.16
2022-09-16T16:07:52.812Z,98702.83
2022-09-16T16:10:36.038Z,98702.39
2022-09-16T16:13:05.027Z,98706.83
2022-09-16T16:15:36.851Z,98704.00
2022-09-16T16:18:11.678Z,98703.86
2022-09-16T16:20:41.874Z,98708.58
2022-09-16T16:23:13.470Z,98709.19
2022-09-16T16:25:42.528Z,98710.72
2022-09-16T16:28:11.755Z,98711.48
2022-09-16T16:30:41.629Z,98710.58
2022-09-16T16:33:10.651Z,98711.61
2022-09-16T16:35:39.137Z,98710.73
2022-09-16T16:38:08.300Z,98711.48
2022-09-16T16:40:37.873Z,98715.13
2022-09-16T16:43:06.664Z,98714.17
2022-09-16T16:45:35.139Z,98715.69
2022-09-16T16:48:04.243Z,98717.91
2022-09-16T16:51:04.057Z,98719.89
2022-09-16T16:53:33.300Z,98720.02
2022-09-16T16:56:06.289Z,98716.89
2022-09-16T16:58:37.636Z,98718.40
2022-09-16T17:01:10.566Z,98722.09
2022-09-16T17:03:40.748Z,98723.98
2022-09-16T17:06:10.226Z,98729.21
2022-09-16T17:08:38.793Z,98730.57
2022-09-16T17:11:08.016Z,98732.04
2022-09-16T17:13:38.245Z,98731.90
2022-09-16T17:16:08.583Z,98731.41
2022-09-16T17:18:39.651Z,98729.65
2022-09-16T17:21:14.051Z,98738.27
2022-09-16T17:23:45.669Z,98737.90
2022-09-16T17:26:16.067Z,98739.70
2022-09-16T17:28:47.484Z,98738.77
2022-09-16T17:31:18.115Z,98742.66
2022-09-16T17:33:49.065Z,98740.86
2022-09-16T17:36:21.321Z,98745.16
2022-09-16T17:39:15.705Z,98748.95
2022-09-16T17:41:48.191Z,98746.95
2022-09-16T17:44:19.708Z,98748.06
2022-09-16T17:46:50.388Z,98744.09
2022-09-16T17:49:22.402Z,98749.25
2022-09-16T17:51:53.992Z,98748.02
2022-09-16T17:54:23.649Z,98742.92
2022-09-16T17:56:53.500Z,98747.95
2022-09-16T17:59:23.398Z,98745.46
2022-09-16T18:01:54.716Z,98747.79
2022-09-16T18:04:23.215Z,98749.14
2022-09-16T18:06:53.114Z,98748.64
2022-09-16T18:09:22.363Z,98749.58
2022-09-16T18:11:50.935Z,98746.93
2022-09-16T18:14:23.283Z,98747.38
2022-09-16T18:16:52.675Z,98749.36
2022-09-16T18:19:21.271Z,98745.16
2022-09-16T18:21:50.820Z,98743.05
2022-09-16T18:24:20.592Z,98743.60
2022-09-16T18:26:50.048Z,98743.80
2022-09-16T18:29:19.723Z,98746.36
2022-09-16T18:31:50.288Z,98744.29
2022-09-16T18:34:19.501Z,98742.49
2022-09-16T18:36:48.099Z,98744.38
2022-09-16T18:39:18.768Z,98745.29
2022-09-16T18:41:47.947Z,98748.86
2022-09-16T18:44:24.063Z,98747.22
2022-09-16T18:46:54.013Z,98748.21
2022-09-16T18:49:24.467Z,98746.23
2022-09-16T18:51:54.168Z,98746.99
2022-09-16T18:54:28.319Z,98751.66
2022-09-16T18:56:59.482Z,98746.41
2022-09-16T18:59:31.477Z,98746.63
2022-09-16T19:02:04.309Z,98749.16
2022-09-16T19:04:38.068Z,98749.72
2022-09-16T19:07:08.874Z,98748.14
2022-09-16T19:09:42.132Z,98748.61
2022-09-16T19:12:13.721Z,98745.05
2022-09-16T19:14:42.875Z,98747.18
2022-09-16T19:17:11.736Z,98743.72
2022-09-16T19:19:41.238Z,98745.52
2022-09-16T19:22:10.546Z,98745.84
2022-09-16T19:24:39.502Z,98743.88
2022-09-16T19:27:08.540Z,98746.65
2022-09-16T19:29:37.759Z,98745.39
2022-09-16T19:32:07.123Z,98744.27
2022-09-16T19:34:36.567Z,98742.92
2022-09-16T19:37:05.904Z,98744.86
2022-09-16T19:39:35.591Z,98747.57
2022-09-16T19:42:05.993Z,98744.52
2022-09-16T19:44:35.473Z,98741.94
2022-09-16T19:47:04.895Z,98741.16
2022-09-16T19:49:35.042Z,98738.84
2022-09-16T19:52:04.350Z,98737.44
2022-09-16T19:54:33.165Z,98742.33
2022-09-16T19:57:03.209Z,98737.46
2022-09-16T19:59:32.600Z,98735.23
2022-09-16T20:02:01.547Z,98730.31
2022-09-16T20:04:30.438Z,98726.13
2022-09-16T20:06:59.235Z,98723.73
2022-09-16T20:09:30.319Z,98727.54
2022-09-16T20:11:59.657Z,98725.91
2022-09-16T20:14:34.288Z,98725.33
2022-09-16T20:17:04.186Z,98725.61
2022-09-16T20:19:34.090Z,98721.40
2022-09-16T20:22:03.534Z,98720.95
2022-09-16T20:24:32.403Z,98719.16
2022-09-16T20:27:01.822Z,98723.75
2022-09-16T20:29:32.279Z,98725.09
2022-09-16T20:32:01.417Z,98727.99
2022-09-16T20:34:32.010Z,98727.85
2022-09-16T20:37:00.788Z,98729.61
2022-09-16T20:39:29.925Z,98738.39
2022-09-16T20:42:00.488Z,98741.27
2022-09-16T20:44:28.959Z,98741.00
2022-09-16T20:46:58.042Z,98739.61
2022-09-16T20:49:30.462Z,98744.36
2022-09-16T20:52:00.762Z,98744.49
2022-09-16T20:54:30.203Z,98745.94
2022-09-16T20:56:59.997Z,98745.29
2022-09-16T20:59:29.750Z,98747.13
2022-09-16T21:02:04.907Z,98750.73
2022-09-16T21:04:34.169Z,98750.41
2022-09-16T21:07:04.106Z,98756.09
2022-09-16T21:09:33.132Z,98761.66
2022-09-16T21:12:02.691Z,98759.45
2022-09-16T21:14:32.590Z,98761.29
2022-09-16T21:17:01.683Z,98756.38
2022-09-16T21:19:32.025Z,98754.80
2022-09-16T21:22:01.319Z,98752.50
2022-09-16T21:24:30.642Z,98755.34
2022-09-16T21:26:59.703Z,98750.70
2022-09-16T21:29:29.384Z,98751.66
2022-09-16T21:31:58.695Z,98745.98
2022-09-16T21:34:27.487Z,98747.23
2022-09-16T21:36:59.554Z,98753.20
2022-09-16T21:39:29.334Z,98752.03
2022-09-16T21:41:59.350Z,98751.13
2022-09-16T21:44:28.792Z,98754.21
2022-09-16T21:46:57.524Z,98751.80
2022-09-16T21:49:29.476Z,98754.72
2022-09-16T21:51:59.505Z,98752.55
2022-09-16T21:54:29.788Z,98750.79
2022-09-16T21:56:59.781Z,98752.80
2022-09-16T21:59:28.707Z,98753.02
2022-09-16T22:02:02.879Z,98753.72
2022-09-16T22:04:32.739Z,98754.81
2022-09-16T22:07:01.753Z,98754.58
2022-09-16T22:09:30.775Z,98753.86
2022-09-16T22:12:00.366Z,98754.65
2022-09-16T22:14:30.120Z,98751.79
2022-09-16T22:16:59.879Z,98744.73
2022-09-16T22:19:28.618Z,98745.63
2022-09-16T22:21:57.822Z,98743.27
2022-09-16T22:24:27.231Z,98738.41
2022-09-16T22:26:56.288Z,98740.23
2022-09-16T22:29:25.068Z,98741.93
2022-09-16T22:31:54.121Z,98742.46
2022-09-16T22:34:23.691Z,98738.95
2022-09-16T22:36:53.556Z,98736.91
2022-09-16T22:39:23.293Z,98737.96
2022-09-16T22:41:52.476Z,98734.02
2022-09-16T22:44:21.710Z,98730.95
2022-09-16T22:46:52.027Z,98728.70
2022-09-16T22:49:21.317Z,98731.60
2022-09-16T22:51:50.180Z,98729.67
2022-09-16T22:54:19.178Z,98727.38
2022-09-16T22:56:48.483Z,98723.82
2022-09-16T22:59:19.523Z,98729.52
2022-09-16T23:01:49.086Z,98734.08
2022-09-16T23:04:19.434Z,98731.95
2022-09-16T23:06:48.454Z,98733.59
2022-09-16T23:09:23.480Z,98728.74
2022-09-16T23:11:53.376Z,98730.19
2022-09-16T23:14:25.232Z,98729.36
2022-09-16T23:16:57.884Z,98729.07
2022-09-16T23:19:27.331Z,98731.07
2022-09-16T23:21:56.568Z,98732.73
2022-09-16T23:24:25.760Z,98729.85
2022-09-16T23:26:54.925Z,98726.91
2022-09-16T23:29:24.152Z,98722.49
2022-09-16T23:31:54.326Z,98722.66
2022-09-16T23:34:24.094Z,98720.01
2022-09-16T23:36:53.140Z,98718.81
2022-09-16T23:39:22.300Z,98712.29
2022-09-16T23:41:51.953Z,98713.40
2022-09-16T23:44:22.728Z,98711.52
2022-09-16T23:46:52.803Z,98709.89
2022-09-16T23:49:22.032Z,98718.96
2022-09-16T23:51:50.701Z,98716.47
2022-09-16T23:54:20.958Z,98714.67
2022-09-16T23:56:50.472Z,98715.71
2022-09-16T23:59:19.971Z,98718.16
